createdAt,value
2022-09-25T00:00:21.910Z,94600
2022-09-25T00:03:47.377Z,94598
2022-09-25T00:07:12.855Z,94599
2022-09-25T00:10:38.300Z,94600
2022-09-25T00:14:03.875Z,94594
2022-09-25T00:17:29.229Z,94590
2022-09-25T00:20:54.702Z,94593
2022-09-25T00:24:20.290Z,94592
2022-09-25T00:27:45.737Z,94589
2022-09-25T00:31:11.339Z,94587
2022-09-25T00:34:36.626Z,94585
2022-09-25T00:38:02.067Z,94581
2022-09-25T00:41:27.514Z,94583
2022-09-25T00:44:52.981Z,94587
2022-09-25T00:48:18.420Z,94589
2022-09-25T00:51:43.870Z,94586
2022-09-25T00:55:09.324Z,94587
2022-09-25T00:58:34.762Z,94590
2022-09-25T01:02:00.324Z,94581
2022-09-25T01:05:25.796Z,94578
2022-09-25T01:08:51.156Z,94578
2022-09-25T01:12:16.573Z,94578
2022-09-25T01:15:42.031Z,94579
2022-09-25T01:19:07.529Z,94583
2022-09-25T01:22:33.045Z,94569
2022-09-25T01:26:03.555Z,94571
2022-09-25T01:29:29.069Z,94573
2022-09-25T01:32:54.577Z,94567
2022-09-25T01:36:19.998Z,94573
2022-09-25T01:39:45.509Z,94580
2022-09-25T01:43:10.943Z,94578
2022-09-25T01:46:36.541Z,94570
2022-09-25T01:50:01.866Z,94579
2022-09-25T01:53:27.340Z,94580
2022-09-25T01:56:52.831Z,94579
2022-09-25T02:00:18.238Z,94580
2022-09-25T02:03:43.748Z,94579
2022-09-25T02:07:09.213Z,94582
2022-09-25T02:10:34.659Z,94576
2022-09-25T02:14:00.154Z,94572
2022-09-25T02:17:26.163Z,94567
2022-09-25T02:20:51.588Z,94570
2022-09-25T02:24:17.062Z,94567
2022-09-25T02:27:42.490Z,94564
2022-09-25T02:31:08.145Z,94557
2022-09-25T02:34:33.355Z,94559
2022-09-25T02:37:58.844Z,94555
2022-09-25T02:41:24.269Z,94550
2022-09-25T02:44:49.730Z,94556
2022-09-25T02:48:15.329Z,94557
2022-09-25T02:51:40.652Z,94559
2022-09-25T02:55:06.125Z,94559
2022-09-25T02:58:31.570Z,94553
2022-09-25T03:01:57.039Z,94555
2022-09-25T03:05:22.515Z,94554
2022-09-25T03:08:47.934Z,94553
2022-09-25T03:12:13.427Z,94545
2022-09-25T03:15:38.842Z,94545
2022-09-25T03:19:04.289Z,94546
2022-09-25T03:22:29.783Z,94544
2022-09-25T03:25:55.194Z,94547
2022-09-25T03:29:20.631Z,94548
2022-09-25T03:32:46.091Z,94547
2022-09-25T03:36:11.526Z,94543
2022-09-25T03:39:37.013Z,94538
2022-09-25T03:46:26.427Z,94535
2022-09-25T03:49:51.762Z,94528
2022-09-25T03:53:17.173Z,94529
2022-09-25T03:56:42.647Z,94533
2022-09-25T04:00:08.029Z,94530
2022-09-25T04:03:33.482Z,94530
2022-09-25T04:06:58.893Z,94535
2022-09-25T04:10:24.345Z,94532
2022-09-25T04:13:49.824Z,94533
2022-09-25T04:17:15.291Z,94535
2022-09-25T04:20:40.759Z,94533
2022-09-25T04:24:06.313Z,94535
2022-09-25T04:27:31.699Z,94533
2022-09-25T04:30:57.206Z,94533
2022-09-25T04:34:22.650Z,94540
2022-09-25T04:37:48.122Z,94539
2022-09-25T04:41:13.614Z,94534
2022-09-25T04:44:39.029Z,94537
2022-09-25T04:48:04.583Z,94541
2022-09-25T04:51:29.997Z,94540
2022-09-25T04:54:55.533Z,94546
2022-09-25T04:58:21.443Z,94548
2022-09-25T05:01:46.991Z,94549
2022-09-25T05:05:12.442Z,94552
2022-09-25T05:08:37.765Z,94555
2022-09-25T05:12:03.195Z,94559
2022-09-25T05:15:28.685Z,94555
2022-09-25T05:18:54.129Z,94557
2022-09-25T05:22:19.659Z,94561
2022-09-25T05:25:45.087Z,94557
2022-09-25T05:29:10.594Z,94556
2022-09-25T05:32:36.051Z,94550
2022-09-25T05:36:01.541Z,94546
2022-09-25T05:39:26.957Z,94538
2022-09-25T05:42:52.345Z,94542
2022-09-25T05:46:18.767Z,94543
2022-09-25T05:49:44.246Z,94537
2022-09-25T05:53:09.652Z,94536
2022-09-25T05:56:35.076Z,94539
2022-09-25T06:00:00.559Z,94545
2022-09-25T06:03:26.077Z,94544
2022-09-25T06:06:51.399Z,94539
2022-09-25T06:10:16.803Z,94545
2022-09-25T06:13:42.257Z,94538
2022-09-25T06:17:07.637Z,94549
2022-09-25T06:20:33.042Z,94541
2022-09-25T06:23:58.464Z,94545
2022-09-25T06:27:23.866Z,94539
2022-09-25T06:30:49.396Z,94545
2022-09-25T06:34:14.709Z,94542
2022-09-25T06:37:40.101Z,94546
2022-09-25T06:41:05.601Z,94543
2022-09-25T06:44:30.953Z,94542
2022-09-25T06:47:56.400Z,94548
2022-09-25T06:51:21.783Z,94550
2022-09-25T06:54:47.208Z,94548
2022-09-25T06:58:12.636Z,94547
2022-09-25T07:01:38.042Z,94537
2022-09-25T07:05:03.543Z,94538
2022-09-25T07:08:28.865Z,94537
2022-09-25T07:11:54.262Z,94537
2022-09-25T07:15:19.743Z,94533
2022-09-25T07:18:45.163Z,94531
2022-09-25T07:22:10.666Z,94527
2022-09-25T07:25:36.012Z,94536
2022-09-25T07:29:01.397Z,94542
2022-09-25T07:32:26.821Z,94545
2022-09-25T07:35:52.242Z,94546
2022-09-25T07:39:18.627Z,94541
2022-09-25T07:42:43.086Z,94541
2022-09-25T07:46:08.556Z,94537
2022-09-25T07:49:33.884Z,94538
2022-09-25T07:52:59.313Z,94537
2022-09-25T07:56:24.840Z,94540
2022-09-25T07:59:50.179Z,94538
2022-09-25T08:03:15.645Z,94536
2022-09-25T08:06:41.015Z,94539
2022-09-25T08:10:06.454Z,94544
2022-09-25T08:13:31.880Z,94544
2022-09-25T08:16:57.273Z,94544
2022-09-25T08:20:22.684Z,94549
2022-09-25T08:23:48.325Z,94555
2022-09-25T08:27:13.528Z,94549
2022-09-25T08:30:39.030Z,94548
2022-09-25T08:34:21.330Z,94550
2022-09-25T08:37:29.757Z,94550
2022-09-25T08:40:55.231Z,94542
2022-09-25T08:44:20.599Z,94540
2022-09-25T08:47:46.052Z,94540
2022-09-25T08:51:11.406Z,94538
2022-09-25T08:54:36.958Z,94535
2022-09-25T08:58:02.267Z,94538
2022-09-25T09:01:27.735Z,94542
2022-09-25T09:04:53.127Z,94541
2022-09-25T09:08:18.498Z,94541
2022-09-25T09:11:43.904Z,94539
2022-09-25T09:15:09.335Z,94535
2022-09-25T09:18:34.738Z,94537
2022-09-25T09:22:00.319Z,94537
2022-09-25T09:25:25.597Z,94534
2022-09-25T09:28:51.013Z,94529
2022-09-25T09:32:16.409Z,94527
2022-09-25T09:35:41.778Z,94526
2022-09-25T09:39:07.217Z,94531
2022-09-25T09:42:32.672Z,94529
2022-09-25T09:45:58.093Z,94522
2022-09-25T09:49:23.471Z,94524
2022-09-25T09:52:48.907Z,94529
2022-09-25T09:56:14.310Z,94524
2022-09-25T09:59:39.684Z,94522
2022-09-25T10:03:05.226Z,94520
2022-09-25T10:06:30.505Z,94512
2022-09-25T10:09:55.941Z,94508
2022-09-25T10:13:21.402Z,94502
2022-09-25T10:16:46.701Z,94499
2022-09-25T10:20:12.124Z,94497
2022-09-25T10:23:37.548Z,94493
2022-09-25T10:27:02.953Z,94488
2022-09-25T10:30:28.384Z,94490
2022-09-25T10:33:53.856Z,94489
2022-09-25T10:37:19.816Z,94488
2022-09-25T10:40:45.392Z,94488
2022-09-25T10:44:10.661Z,94483
2022-09-25T10:47:36.109Z,94479
2022-09-25T10:51:01.614Z,94480
2022-09-25T10:54:27.012Z,94481
2022-09-25T10:57:52.481Z,94478
2022-09-25T11:01:18.305Z,94483
2022-09-25T11:04:44.389Z,94481
2022-09-25T11:08:09.839Z,94479
2022-09-25T11:11:35.273Z,94469
2022-09-25T11:15:00.722Z,94468
2022-09-25T11:18:26.209Z,94469
2022-09-25T11:21:51.656Z,94466
2022-09-25T11:25:17.084Z,94463
2022-09-25T11:28:42.525Z,94463
2022-09-25T11:32:07.941Z,94462
2022-09-25T11:35:33.430Z,94466
2022-09-25T11:38:58.853Z,94465
2022-09-25T11:42:25.291Z,94464
2022-09-25T11:45:49.727Z,94461
2022-09-25T11:49:15.445Z,94456
2022-09-25T11:52:40.606Z,94455
2022-09-25T11:56:06.055Z,94451
2022-09-25T11:59:31.546Z,94447
2022-09-25T12:02:57.007Z,94444
2022-09-25T12:06:22.529Z,94440
2022-09-25T12:09:47.949Z,94442
2022-09-25T12:13:13.428Z,94440
2022-09-25T12:16:39.060Z,94436
2022-09-25T12:20:04.413Z,94432
2022-09-25T12:23:29.936Z,94427
2022-09-25T12:26:55.423Z,94425
2022-09-25T12:30:20.868Z,94427
2022-09-25T12:33:46.339Z,94437
2022-09-25T12:37:11.803Z,94437
2022-09-25T12:40:37.401Z,94441
2022-09-25T12:44:02.779Z,94438
2022-09-25T12:47:28.356Z,94437
2022-09-25T12:50:53.711Z,94432
2022-09-25T12:54:19.199Z,94424
2022-09-25T12:57:44.611Z,94419
2022-09-25T13:01:10.151Z,94419
2022-09-25T13:04:35.559Z,94419
2022-09-25T13:08:01.026Z,94418
2022-09-25T13:11:26.466Z,94422
2022-09-25T13:14:51.915Z,94415
2022-09-25T13:18:17.366Z,94421
2022-09-25T13:21:42.817Z,94426
2022-09-25T13:25:08.255Z,94422
2022-09-25T13:28:33.670Z,94419
2022-09-25T13:31:59.149Z,94412
2022-09-25T13:35:24.552Z,94408
2022-09-25T13:38:49.995Z,94403
2022-09-25T13:42:15.370Z,94413
2022-09-25T13:45:40.888Z,94405
2022-09-25T13:49:06.300Z,94412
2022-09-25T13:52:31.718Z,94409
2022-09-25T13:55:57.191Z,94406
2022-09-25T13:59:22.600Z,94406
2022-09-25T14:02:47.995Z,94402
2022-09-25T14:06:13.452Z,94409
2022-09-25T14:09:38.869Z,94404
2022-09-25T14:13:07.106Z,94400
2022-09-25T14:16:29.762Z,94393
2022-09-25T14:19:55.149Z,94393
2022-09-25T14:23:20.604Z,94393
2022-09-25T14:26:46.037Z,94395
2022-09-25T14:30:11.534Z,94393
2022-09-25T15:07:05.865Z,94378
2022-09-25T15:10:31.210Z,94388
2022-09-25T15:13:56.549Z,94398
2022-09-25T15:17:21.886Z,94399
2022-09-25T15:20:47.259Z,94401
2022-09-25T15:24:12.655Z,94405
2022-09-25T15:27:37.931Z,94407
2022-09-25T15:31:03.353Z,94399
2022-09-25T15:34:28.634Z,94399
2022-09-25T15:37:53.965Z,94400
2022-09-25T15:41:19.295Z,94396
2022-09-25T15:44:44.647Z,94390
2022-09-25T15:48:09.983Z,94389
2022-09-25T15:51:35.310Z,94384
2022-09-25T15:55:00.629Z,94384
2022-09-25T15:58:26.075Z,94379
2022-09-25T16:01:51.458Z,94380
2022-09-25T16:05:16.621Z,94382
2022-09-25T16:08:42.003Z,94374
2022-09-25T16:12:07.314Z,94377
2022-09-25T16:15:32.683Z,94375
2022-09-25T16:18:58.030Z,94376
2022-09-25T16:22:23.321Z,94379
2022-09-25T16:25:48.670Z,94371
2022-09-25T16:29:14.164Z,94368
2022-09-25T16:32:39.387Z,94366
2022-09-25T16:36:14.312Z,94368
2022-09-25T16:39:30.055Z,94372
2022-09-25T16:42:55.382Z,94374
2022-09-25T16:46:20.805Z,94371
2022-09-25T16:49:46.066Z,94378
2022-09-25T16:53:11.370Z,94374
2022-09-25T16:56:36.754Z,94378
2022-09-25T17:00:02.184Z,94369
2022-09-25T17:03:27.585Z,94365
2022-09-25T17:06:53.057Z,94367
2022-09-25T17:10:18.448Z,94367
2022-09-25T17:13:45.362Z,94370
2022-09-25T17:17:10.871Z,94367
2022-09-25T17:20:36.310Z,94366
2022-09-25T17:24:03.646Z,94358
2022-09-25T17:27:29.089Z,94367
2022-09-25T17:30:54.546Z,94371
2022-09-25T17:34:24.257Z,94371
2022-09-25T17:37:50.251Z,94368
2022-09-25T17:41:15.811Z,94373
2022-09-25T17:44:41.178Z,94366
2022-09-25T17:48:06.674Z,94370
2022-09-25T17:51:33.160Z,94379
2022-09-25T17:54:58.585Z,94379
2022-09-25T17:58:24.033Z,94381
2022-09-25T18:01:49.537Z,94385
2022-09-25T18:05:14.946Z,94388
2022-09-25T18:08:40.356Z,94394
2022-09-25T18:12:05.936Z,94404
2022-09-25T18:15:31.433Z,94398
2022-09-25T18:18:56.831Z,94399
2022-09-25T18:22:22.519Z,94398
2022-09-25T18:25:47.919Z,94405
2022-09-25T18:29:13.451Z,94396
2022-09-25T18:32:38.902Z,94392
2022-09-25T18:36:04.394Z,94388
2022-09-25T18:39:29.881Z,94386
2022-09-25T18:42:55.342Z,94391
2022-09-25T18:46:20.854Z,94402
2022-09-25T18:49:46.281Z,94409
2022-09-25T18:53:11.681Z,94409
2022-09-25T18:56:37.120Z,94408
2022-09-25T19:00:02.552Z,94409
2022-09-25T19:03:27.958Z,94417
2022-09-25T19:06:53.420Z,94417
2022-09-25T19:10:18.931Z,94413
2022-09-25T19:13:44.358Z,94406
2022-09-25T19:17:09.858Z,94409
2022-09-25T19:20:35.296Z,94412
2022-09-25T19:24:00.761Z,94410
2022-09-25T19:27:26.202Z,94410
2022-09-25T19:30:51.690Z,94408
2022-09-25T19:34:17.094Z,94413
2022-09-25T19:37:42.540Z,94412
2022-09-25T19:41:07.986Z,94412
2022-09-25T19:44:33.374Z,94409
2022-09-25T19:47:58.813Z,94412
2022-09-25T19:51:24.492Z,94417
2022-09-25T19:54:49.983Z,94411
2022-09-25T19:58:17.832Z,94407
2022-09-25T20:01:40.908Z,94406
2022-09-25T20:05:06.301Z,94402
2022-09-25T20:08:31.731Z,94403
2022-09-25T20:11:57.159Z,94405
2022-09-25T20:15:22.625Z,94402
2022-09-25T20:18:47.991Z,94405
2022-09-25T20:22:13.446Z,94400
2022-09-25T20:25:38.845Z,94404
2022-09-25T20:29:04.258Z,94403
2022-09-25T20:32:29.713Z,94400
2022-09-25T20:35:55.131Z,94398
2022-09-25T20:39:21.452Z,94402
2022-09-25T20:42:45.943Z,94402
2022-09-25T20:46:11.476Z,94399
2022-09-25T20:49:36.854Z,94404
2022-09-25T20:53:02.273Z,94399
2022-09-25T20:56:27.722Z,94402
2022-09-25T20:59:53.127Z,94403
2022-09-25T21:03:18.555Z,94402
2022-09-25T21:06:43.973Z,94397
2022-09-25T21:10:09.394Z,94392
2022-09-25T21:13:34.826Z,94394
2022-09-25T21:17:00.302Z,94391
2022-09-25T21:20:25.641Z,94394
2022-09-25T21:23:51.068Z,94394
2022-09-25T21:27:16.449Z,94391
2022-09-25T21:30:41.893Z,94389
2022-09-25T21:34:07.289Z,94385
2022-09-25T21:37:32.804Z,94383
2022-09-25T21:40:58.322Z,94382
2022-09-25T21:44:23.727Z,94380
2022-09-25T21:47:49.228Z,94376
2022-09-25T21:51:14.764Z,94376
2022-09-25T21:54:40.186Z,94374
2022-09-25T21:58:05.591Z,94376
2022-09-25T22:01:31.036Z,94373
2022-09-25T22:04:56.401Z,94367
2022-09-25T22:08:21.828Z,94365
2022-09-25T22:11:47.258Z,94369
2022-09-25T22:15:12.689Z,94366
2022-09-25T22:18:38.073Z,94366
2022-09-25T22:22:03.491Z,94360
2022-09-25T22:25:28.895Z,94357
2022-09-25T22:28:54.374Z,94357
2022-09-25T22:32:19.968Z,94355
2022-09-25T22:35:45.360Z,94345
2022-09-25T22:39:10.929Z,94345
2022-09-25T22:42:36.342Z,94346
2022-09-25T22:46:01.838Z,94342
2022-09-25T22:49:27.249Z,94343
2022-09-25T22:52:56.335Z,94342
2022-09-25T22:56:18.046Z,94336
2022-09-25T22:59:43.485Z,94341
2022-09-25T23:03:08.908Z,94333
2022-09-25T23:06:34.310Z,94331
2022-09-25T23:09:59.810Z,94329
2022-09-25T23:13:25.248Z,94328
2022-09-25T23:16:50.714Z,94328
2022-09-25T23:20:16.048Z,94327
2022-09-25T23:23:41.461Z,94330
2022-09-25T23:27:06.807Z,94326
2022-09-25T23:30:32.294Z,94323
2022-09-25T23:33:57.660Z,94321
2022-09-25T23:37:23.033Z,94314
2022-09-25T23:40:48.550Z,94313
2022-09-25T23:44:13.924Z,94307
2022-09-25T23:47:39.298Z,94298
2022-09-25T23:51:04.721Z,94301
2022-09-25T23:54:30.104Z,94298
2022-09-25T23:57:55.565Z,94295
